Time;durP1;ratioP1;P1;durP2;ratioP2;P2;SDS_P1;SDS_P2;PMS_P1;PMS_P2;Temp;Humidity;BMP_temperature;BMP_pressure;BME280_temperature;BME280_humidity;BME280_pressure;Samples;Min_cycle;Max_cycle;Signal;HPM_P1;HPM_P2
2022/01/25 00:08:38;;;;;;;81.63;24.63;;;2.80;45.20;;;;;;5055486;28;20450;-60
2022/01/25 00:25:08;;;;;;;81.97;26.53;;;2.70;45.20;;;;;;5049642;28;20936;-60
2022/01/25 00:30:42;;;;;;;86.30;27.97;;;2.60;45.40;;;;;;5048687;28;20527;-61
2022/01/25 00:33:09;;;;;;;85.53;26.33;;;2.60;45.40;;;;;;5057516;28;20512;-61
2022/01/25 00:35:36;;;;;;;85.30;26.10;;;2.60;45.30;;;;;;5061611;28;20453;-61
2022/01/25 00:38:04;;;;;;;85.00;26.80;;;2.60;45.30;;;;;;5063213;28;20986;-60
2022/01/25 00:40:31;;;;;;;84.43;25.60;;;2.60;45.30;;;;;;5047669;28;20474;-59
2022/01/25 00:42:57;;;;;;;87.93;27.93;;;2.60;45.30;;;;;;5049708;28;20454;-61
2022/01/25 00:45:28;;;;;;;115.13;30.33;;;2.60;45.40;;;;;;5059901;28;20453;-60
2022/01/25 00:47:55;;;;;;;90.70;28.27;;;2.60;45.40;;;;;;5053579;28;20465;-60
2022/01/25 00:50:22;;;;;;;102.30;29.40;;;2.60;45.60;;;;;;5056893;28;20490;-60
2022/01/25 00:55:36;;;;;;;91.23;29.23;;;2.60;45.70;;;;;;5053184;28;20536;-59
2022/01/25 00:58:03;;;;;;;95.87;30.40;;;2.50;45.40;;;;;;5053610;28;20465;-60
2022/01/25 01:00:30;;;;;;;105.73;32.47;;;2.50;45.50;;;;;;5053397;28;20481;-59
2022/01/25 01:02:57;;;;;;;90.50;29.07;;;2.50;45.90;;;;;;5057213;28;20477;-60
2022/01/25 01:05:24;;;;;;;90.10;27.93;;;2.50;45.90;;;;;;5056160;28;20514;-60
2022/01/25 01:07:51;;;;;;;97.30;24.43;;;2.50;45.80;;;;;;5052031;28;20462;-60
2022/01/25 01:10:21;;;;;;;85.90;26.47;;;2.50;45.90;;;;;;5047835;28;20480;-60
2022/01/25 01:15:52;;;;;;;83.13;26.10;;;2.40;45.80;;;;;;5036016;28;20819;-60
2022/01/25 01:29:27;;;;;;;97.73;31.17;;;2.30;46.30;;;;;;5051951;28;20527;-60
2022/01/25 01:32:03;;;;;;;86.53;29.87;;;2.30;46.40;;;;;;5048091;28;20483;-61
2022/01/25 01:43:13;;;;;;;94.30;30.77;;;2.30;46.50;;;;;;5038272;28;20438;-60
2022/01/25 01:45:50;;;;;;;96.73;27.10;;;2.40;46.60;;;;;;5049523;28;20525;-60
2022/01/25 01:48:27;;;;;;;86.87;27.30;;;2.40;46.60;;;;;;5051294;28;20545;-60
2022/01/25 01:50:57;;;;;;;97.70;27.23;;;2.30;46.50;;;;;;5058608;28;20925;-60
2022/01/25 01:53:24;;;;;;;115.80;31.60;;;2.30;46.50;;;;;;5062676;28;20445;-60
2022/01/25 01:55:51;;;;;;;91.97;30.63;;;2.30;46.60;;;;;;5051627;28;20488;-60
2022/01/25 01:58:17;;;;;;;92.17;26.67;;;2.40;46.60;;;;;;5051416;28;20520;-60
2022/01/25 02:00:49;;;;;;;92.77;27.93;;;2.40;46.90;;;;;;5046205;28;21016;-60
2022/01/25 02:03:16;;;;;;;93.37;29.20;;;2.40;46.90;;;;;;5055090;28;20480;-60
2022/01/25 02:05:43;;;;;;;96.87;27.87;;;2.40;46.70;;;;;;5050947;28;20955;-60
2022/01/25 02:08:10;;;;;;;101.17;29.30;;;2.40;46.60;;;;;;5054523;28;20458;-60
2022/01/25 02:10:37;;;;;;;84.37;29.07;;;2.40;46.50;;;;;;5052350;28;21216;-60
2022/01/25 02:13:06;;;;;;;81.97;24.90;;;2.50;46.70;;;;;;5055806;28;20996;-60
2022/01/25 02:15:35;;;;;;;85.30;28.47;;;2.50;46.40;;;;;;5048114;28;20446;-60
2022/01/25 02:23:35;;;;;;;86.73;25.27;;;2.50;46.00;;;;;;5050856;28;20444;-60
2022/01/25 02:26:05;;;;;;;93.40;27.07;;;2.50;45.90;;;;;;5054929;28;20458;-60
2022/01/25 02:28:34;;;;;;;86.17;28.07;;;2.50;46.00;;;;;;5049638;28;20477;-60
2022/01/25 02:31:04;;;;;;;83.53;27.27;;;2.50;45.90;;;;;;5049316;28;20553;-60
2022/01/25 02:33:31;;;;;;;94.83;29.87;;;2.40;45.70;;;;;;5061952;28;20820;-60
2022/01/25 02:36:05;;;;;;;87.60;26.40;;;2.50;45.70;;;;;;5049968;28;20843;-60
2022/01/25 02:38:32;;;;;;;97.00;27.50;;;2.40;46.40;;;;;;5042151;28;21397;-59
2022/01/25 02:41:01;;;;;;;85.90;25.80;;;2.50;45.90;;;;;;5046880;28;20489;-59
2022/01/25 02:43:29;;;;;;;87.33;25.97;;;2.40;45.40;;;;;;5049307;28;20466;-60
2022/01/25 02:48:53;;;;;;;90.17;27.97;;;2.40;45.60;;;;;;5005977;28;20452;-60
2022/01/25 02:51:22;;;;;;;92.03;27.40;;;2.30;45.60;;;;;;5056224;28;20547;-59
2022/01/25 02:53:49;;;;;;;88.03;27.23;;;2.30;45.80;;;;;;5054722;28;20458;-60
2022/01/25 02:56:16;;;;;;;94.10;28.50;;;2.30;45.80;;;;;;5047908;28;20454;-59
2022/01/25 02:58:43;;;;;;;95.33;30.23;;;2.30;46.00;;;;;;5053466;28;20932;-60
2022/01/25 03:01:10;;;;;;;89.07;27.50;;;2.30;46.00;;;;;;5045891;28;20475;-60
2022/01/25 03:03:37;;;;;;;91.03;28.40;;;2.30;46.00;;;;;;5057021;28;20461;-59
2022/01/25 03:06:05;;;;;;;84.23;27.20;;;2.30;46.10;;;;;;5051924;28;20461;-60
2022/01/25 03:08:33;;;;;;;85.17;27.37;;;2.30;46.20;;;;;;5052560;28;20462;-60
2022/01/25 03:11:00;;;;;;;94.83;31.40;;;2.30;46.00;;;;;;5047923;28;20560;-60
2022/01/25 03:13:32;;;;;;;92.40;27.90;;;2.30;46.10;;;;;;5049274;28;20495;-62
2022/01/25 03:16:03;;;;;;;93.77;27.17;;;2.30;46.00;;;;;;5049088;28;20524;-60
2022/01/25 03:18:41;;;;;;;92.57;29.83;;;2.20;46.10;;;;;;5046232;28;20489;-60
2022/01/25 03:21:34;;;;;;;86.13;27.20;;;2.20;46.10;;;;;;5052337;28;20476;-60
2022/01/25 03:24:05;;;;;;;87.90;26.57;;;2.20;46.20;;;;;;5046343;28;21199;-60
2022/01/25 03:26:33;;;;;;;86.80;27.93;;;2.20;46.30;;;;;;5052469;28;20461;-61
2022/01/25 03:29:01;;;;;;;85.17;27.10;;;2.20;46.20;;;;;;5050654;28;20498;-61
2022/01/25 03:31:28;;;;;;;84.13;26.63;;;2.20;46.20;;;;;;5052895;28;20470;-60
2022/01/25 03:33:54;;;;;;;86.93;28.03;;;2.30;46.30;;;;;;5061987;28;20456;-60
2022/01/25 03:36:21;;;;;;;85.03;27.83;;;2.20;46.10;;;;;;5054371;28;20458;-61
2022/01/25 03:38:48;;;;;;;94.50;27.50;;;2.20;46.20;;;;;;5052864;28;20458;-60
2022/01/25 03:41:17;;;;;;;90.90;28.43;;;2.20;46.50;;;;;;5054098;28;21046;-60
2022/01/25 03:43:51;;;;;;;85.27;27.40;;;2.20;46.30;;;;;;5058948;28;20553;-61
2022/01/25 03:46:23;;;;;;;85.70;27.90;;;2.10;46.30;;;;;;5056826;28;20483;-60
2022/01/25 03:51:34;;;;;;;91.33;29.37;;;2.10;46.60;;;;;;5046530;28;20543;-61
2022/01/25 03:54:01;;;;;;;77.17;26.37;;;2.10;46.50;;;;;;5053419;28;20990;-61
2022/01/25 03:56:29;;;;;;;86.30;29.77;;;2.10;46.60;;;;;;5050984;28;20461;-60
2022/01/25 03:58:55;;;;;;;80.53;27.17;;;2.10;46.60;;;;;;5058887;28;20469;-62
2022/01/25 04:01:22;;;;;;;80.40;26.50;;;2.10;46.50;;;;;;5049348;28;20470;-60
2022/01/25 04:03:57;;;;;;;84.47;27.43;;;2.10;46.50;;;;;;5046671;28;20473;-60
2022/01/25 04:06:24;;;;;;;83.93;28.00;;;2.10;46.40;;;;;;5057490;28;20457;-59
2022/01/25 04:08:51;;;;;;;88.33;30.57;;;2.10;46.70;;;;;;5049291;28;21156;-60
2022/01/25 04:11:18;;;;;;;85.43;28.07;;;2.10;46.40;;;;;;5052558;28;20446;-61
2022/01/25 04:13:48;;;;;;;87.10;26.50;;;2.10;46.30;;;;;;5053335;28;20485;-62
2022/01/25 04:16:20;;;;;;;84.80;26.70;;;2.10;46.40;;;;;;5056302;28;20460;-60
2022/01/25 04:18:55;;;;;;;79.33;26.30;;;2.10;46.50;;;;;;5060194;28;20460;-60
2022/01/25 04:21:45;;;;;;;88.83;28.97;;;2.10;46.20;;;;;;5043692;28;20477;-62
2022/01/25 04:26:58;;;;;;;75.83;26.27;;;2.10;46.10;;;;;;5054052;28;20438;-61
2022/01/25 04:29:27;;;;;;;82.17;25.50;;;2.10;46.00;;;;;;5056964;28;20477;-60
2022/01/25 04:31:54;;;;;;;82.43;25.90;;;2.10;46.20;;;;;;5060317;28;21029;-61
2022/01/25 04:34:41;;;;;;;77.23;22.20;;;2.10;45.90;;;;;;5049593;28;20978;-61
2022/01/25 04:51:31;;;;;;;73.73;23.67;;;2.00;45.30;;;;;;5047341;28;20488;-60
2022/01/25 04:54:03;;;;;;;74.60;25.40;;;2.00;45.10;;;;;;5055274;23;20581;-69
2022/01/25 04:56:36;;;;;;;80.10;24.20;;;2.00;45.00;;;;;;5049653;28;20540;-69
2022/01/25 04:59:10;;;;;;;82.33;25.63;;;1.90;45.10;;;;;;5050231;28;20461;-69
2022/01/25 05:01:39;;;;;;;77.93;25.80;;;1.90;45.00;;;;;;5048811;28;20496;-69
2022/01/25 05:04:10;;;;;;;78.03;25.30;;;1.90;45.10;;;;;;5049317;28;20461;-69
2022/01/25 05:06:38;;;;;;;83.43;27.10;;;1.90;45.00;;;;;;5028687;28;20475;-70
2022/01/25 05:09:10;;;;;;;80.00;24.80;;;1.90;45.00;;;;;;5028227;28;20463;-69
2022/01/25 05:11:42;;;;;;;84.77;27.60;;;1.90;45.10;;;;;;5029058;28;20459;-69
2022/01/25 05:14:19;;;;;;;76.80;26.33;;;2.00;44.70;;;;;;5034175;28;20459;-69
2022/01/25 05:16:50;;;;;;;80.97;23.87;;;1.90;44.70;;;;;;5029244;28;20514;-69
2022/01/25 05:19:36;;;;;;;83.53;27.63;;;1.90;45.40;;;;;;5029670;28;21243;-69
2022/01/25 05:22:07;;;;;;;75.67;25.77;;;1.90;44.90;;;;;;5029289;28;20479;-69
2022/01/25 05:24:35;;;;;;;74.97;26.47;;;1.90;44.90;;;;;;5029274;28;20462;-69
2022/01/25 05:27:02;;;;;;;82.80;25.37;;;1.80;44.90;;;;;;5028653;28;21018;-69
2022/01/25 05:29:28;;;;;;;83.10;27.97;;;1.80;45.00;;;;;;5028592;28;20481;-69
2022/01/25 05:31:57;;;;;;;84.87;27.40;;;1.90;45.20;;;;;;5028535;28;20635;-70
2022/01/25 05:34:23;;;;;;;83.07;28.00;;;1.80;45.10;;;;;;5029392;28;20463;-69
2022/01/25 05:36:50;;;;;;;77.73;26.37;;;1.90;45.20;;;;;;5027980;28;21006;-69
2022/01/25 05:39:21;;;;;;;84.90;27.50;;;1.90;45.20;;;;;;5028932;28;20713;-69
2022/01/25 05:41:55;;;;;;;79.60;24.23;;;1.90;44.90;;;;;;5028443;28;20514;-69
2022/01/25 05:44:26;;;;;;;86.47;27.60;;;1.80;44.90;;;;;;5027147;28;20846;-69
2022/01/25 05:47:05;;;;;;;80.13;27.17;;;1.80;45.00;;;;;;5026580;28;20529;-69
2022/01/25 05:49:35;;;;;;;76.20;23.80;;;1.80;45.00;;;;;;5029173;28;20562;-69
2022/01/25 05:52:02;;;;;;;83.80;27.40;;;1.80;45.00;;;;;;5028602;28;20477;-70
2022/01/25 05:54:29;;;;;;;84.13;25.97;;;1.80;45.00;;;;;;5028135;28;20499;-69
2022/01/25 05:56:55;;;;;;;73.47;24.67;;;1.90;45.10;;;;;;5029044;28;20478;-70
2022/01/25 05:59:22;;;;;;;71.20;23.97;;;1.80;44.90;;;;;;5029054;28;20462;-69
2022/01/25 06:01:49;;;;;;;85.83;25.67;;;1.80;44.90;;;;;;5028530;28;20475;-69
2022/01/25 06:04:16;;;;;;;76.63;26.27;;;1.80;44.90;;;;;;5028380;28;20463;-69
2022/01/25 06:06:45;;;;;;;79.30;24.83;;;1.80;44.90;;;;;;5028765;28;20471;-70
2022/01/25 06:09:12;;;;;;;77.53;25.23;;;1.80;44.80;;;;;;5028802;28;20463;-69
2022/01/25 06:11:38;;;;;;;72.33;23.80;;;1.80;44.70;;;;;;5028382;28;20831;-69
2022/01/25 06:14:06;;;;;;;72.20;22.57;;;1.80;44.60;;;;;;5027870;28;20468;-69
2022/01/25 06:16:33;;;;;;;73.00;23.77;;;1.70;44.60;;;;;;5028729;28;20483;-69
2022/01/25 06:19:00;;;;;;;73.07;22.97;;;1.80;44.30;;;;;;5028716;28;20459;-69
2022/01/25 06:21:27;;;;;;;70.37;21.23;;;1.80;44.30;;;;;;5027739;28;20482;-70
2022/01/25 06:23:56;;;;;;;69.10;23.93;;;1.70;44.00;;;;;;5028154;28;20458;-69
2022/01/25 06:26:23;;;;;;;72.60;25.20;;;1.70;44.20;;;;;;5052713;22;20500;-70
2022/01/25 06:28:50;;;;;;;72.13;23.67;;;1.60;44.30;;;;;;5048325;28;20529;-68
2022/01/25 06:31:17;;;;;;;78.60;25.10;;;1.60;44.50;;;;;;5046678;28;21022;-68
2022/01/25 06:33:45;;;;;;;70.13;21.77;;;1.60;45.30;;;;;;5049225;28;20515;-68
2022/01/25 06:36:12;;;;;;;78.90;23.37;;;1.60;44.60;;;;;;5047934;28;21071;-68
2022/01/25 06:38:39;;;;;;;74.93;23.00;;;1.60;44.40;;;;;;5048217;28;20458;-68
2022/01/25 06:41:09;;;;;;;75.53;21.77;;;1.60;44.50;;;;;;5047834;28;20469;-68
2022/01/25 06:43:36;;;;;;;72.90;23.30;;;1.50;44.80;;;;;;5047901;28;20955;-69
2022/01/25 06:46:03;;;;;;;73.77;22.83;;;1.50;44.90;;;;;;5047295;28;20760;-68
2022/01/25 06:48:31;;;;;;;77.50;24.43;;;1.50;45.30;;;;;;5048344;28;20458;-69
2022/01/25 06:50:58;;;;;;;80.50;24.53;;;1.50;45.50;;;;;;5047947;28;20457;-68
2022/01/25 06:53:25;;;;;;;76.63;24.03;;;1.50;45.50;;;;;;5048300;28;20462;-69
2022/01/25 06:55:52;;;;;;;76.13;22.37;;;1.50;45.80;;;;;;5047048;28;20482;-68
2022/01/25 06:58:21;;;;;;;78.03;23.20;;;1.40;45.70;;;;;;5052897;28;20910;-69
2022/01/25 07:00:48;;;;;;;72.27;22.53;;;1.40;46.00;;;;;;5051213;28;20552;-68
2022/01/25 07:03:14;;;;;;;80.50;24.30;;;1.40;45.90;;;;;;5052595;28;21029;-69
2022/01/25 07:05:41;;;;;;;82.27;26.70;;;1.40;46.10;;;;;;5052198;28;20473;-68
2022/01/25 07:11:30;;;;;;;76.80;23.63;;;1.40;46.30;;;;;;5051168;28;20788;-68
2022/01/25 07:13:58;;;;;;;85.67;25.50;;;1.30;46.50;;;;;;5052008;28;20461;-69
2022/01/25 07:16:26;;;;;;;74.93;23.93;;;1.30;46.50;;;;;;5050928;28;20482;-69
2022/01/25 07:18:52;;;;;;;83.90;27.07;;;1.30;47.00;;;;;;5052184;28;20458;-69
2022/01/25 07:21:19;;;;;;;79.73;25.80;;;1.30;47.10;;;;;;5051610;28;20492;-68
2022/01/25 07:23:46;;;;;;;73.80;24.57;;;1.30;47.10;;;;;;5052363;28;20485;-68
2022/01/25 07:26:13;;;;;;;84.23;24.70;;;1.30;47.00;;;;;;5051497;28;20496;-68
2022/01/25 07:28:40;;;;;;;78.67;25.30;;;1.30;47.20;;;;;;5051448;28;20462;-68
2022/01/25 07:31:08;;;;;;;77.20;24.83;;;1.40;46.70;;;;;;5050515;28;20473;-69
2022/01/25 07:33:35;;;;;;;81.53;25.50;;;1.40;46.70;;;;;;5051701;28;20453;-69
2022/01/25 07:36:01;;;;;;;85.70;25.80;;;1.40;46.80;;;;;;5051652;28;20478;-69
2022/01/25 07:38:28;;;;;;;81.37;24.33;;;1.50;46.70;;;;;;5050712;28;20993;-68
2022/01/25 07:40:55;;;;;;;77.80;23.37;;;1.50;46.70;;;;;;5051400;28;20461;-69
2022/01/25 07:43:22;;;;;;;77.10;23.30;;;1.50;46.50;;;;;;5051251;28;20832;-69
2022/01/25 07:45:52;;;;;;;75.43;24.13;;;1.60;46.40;;;;;;5053872;28;20863;-69
2022/01/25 07:48:21;;;;;;;78.37;24.33;;;1.50;46.10;;;;;;5051884;28;20551;-70
2022/01/25 07:50:48;;;;;;;78.87;24.77;;;1.60;46.10;;;;;;5051271;28;20462;-69
2022/01/25 07:53:15;;;;;;;77.93;25.23;;;1.60;45.90;;;;;;5051951;28;20454;-68
2022/01/25 07:55:42;;;;;;;83.27;24.17;;;1.60;45.70;;;;;;5051375;28;20862;-69
2022/01/25 07:58:09;;;;;;;75.93;22.07;;;1.60;45.70;;;;;;5050067;28;20941;-69
2022/01/25 08:00:36;;;;;;;71.43;24.10;;;1.70;45.80;;;;;;5050494;28;20469;-69
2022/01/25 08:03:03;;;;;;;77.00;22.53;;;1.70;45.60;;;;;;5051292;28;20485;-69
2022/01/25 08:05:31;;;;;;;79.17;25.97;;;1.70;45.30;;;;;;5051031;28;20481;-68
2022/01/25 08:08:00;;;;;;;79.33;24.40;;;1.70;45.20;;;;;;5049605;28;20465;-69
2022/01/25 08:10:27;;;;;;;73.93;22.30;;;1.70;45.30;;;;;;5051988;28;20468;-69
2022/01/25 08:12:54;;;;;;;71.17;21.13;;;1.80;45.30;;;;;;5050661;28;20461;-70
2022/01/25 08:15:24;;;;;;;69.47;21.23;;;1.80;45.10;;;;;;5050794;28;20501;-69
2022/01/25 08:17:51;;;;;;;67.97;20.20;;;1.80;44.90;;;;;;5050942;28;20523;-68
2022/01/25 08:20:19;;;;;;;79.13;24.00;;;1.80;44.80;;;;;;5049714;28;21004;-68
2022/01/25 08:22:47;;;;;;;72.93;21.50;;;1.80;44.50;;;;;;5048902;28;20489;-68
2022/01/25 08:25:14;;;;;;;72.80;21.93;;;1.80;44.30;;;;;;5050409;28;20454;-69
2022/01/25 08:27:41;;;;;;;66.13;18.47;;;1.90;44.00;;;;;;5050898;28;20450;-69
2022/01/25 08:30:09;;;;;;;69.93;21.53;;;1.90;43.90;;;;;;5049453;28;20454;-69
2022/01/25 08:32:36;;;;;;;72.20;20.50;;;1.90;44.10;;;;;;5050409;28;20465;-67
2022/01/25 08:35:03;;;;;;;72.93;23.17;;;1.90;44.20;;;;;;5051401;28;20454;-68
2022/01/25 08:37:30;;;;;;;77.90;21.23;;;1.90;44.20;;;;;;5053423;28;20461;-67
2022/01/25 08:39:58;;;;;;;71.20;20.60;;;1.90;44.30;;;;;;5050148;28;20454;-68
2022/01/25 08:42:25;;;;;;;73.47;22.17;;;2.00;44.20;;;;;;5050317;28;20481;-68
2022/01/25 08:44:52;;;;;;;75.50;23.00;;;2.00;44.10;;;;;;5049393;28;20465;-67
2022/01/25 08:47:19;;;;;;;69.60;20.17;;;2.00;44.00;;;;;;5050527;28;20514;-68
2022/01/25 08:49:46;;;;;;;71.87;20.63;;;2.10;43.70;;;;;;5049923;28;20454;-68
2022/01/25 08:52:13;;;;;;;72.97;21.10;;;2.10;43.70;;;;;;5049554;28;21015;-68
2022/01/25 08:54:39;;;;;;;72.97;21.87;;;2.20;43.70;;;;;;5049275;28;20824;-69
2022/01/25 08:57:09;;;;;;;77.47;24.10;;;2.20;43.70;;;;;;5049785;28;20488;-69
2022/01/25 08:59:36;;;;;;;84.17;24.87;;;2.20;43.50;;;;;;5050686;28;20553;-68
2022/01/25 09:02:03;;;;;;;72.23;22.33;;;2.20;43.50;;;;;;5048709;28;20489;-68
2022/01/25 09:04:30;;;;;;;74.53;21.80;;;2.30;43.70;;;;;;5049403;28;20869;-68
2022/01/25 09:06:57;;;;;;;75.97;21.10;;;2.30;43.30;;;;;;5049055;28;20516;-68
2022/01/25 09:09:24;;;;;;;72.87;21.97;;;2.30;43.00;;;;;;5049259;28;20454;-69
2022/01/25 09:11:51;;;;;;;84.00;23.73;;;2.40;42.40;;;;;;5048594;28;20458;-69
2022/01/25 09:14:19;;;;;;;76.00;22.97;;;2.40;42.60;;;;;;5049987;28;20454;-69
2022/01/25 09:16:46;;;;;;;73.67;22.10;;;2.40;42.60;;;;;;5048782;28;20482;-68
2022/01/25 09:19:13;;;;;;;70.90;22.27;;;2.40;42.60;;;;;;5049069;28;20716;-68
2022/01/25 09:21:41;;;;;;;76.07;23.60;;;2.50;42.70;;;;;;5049048;28;20523;-68
2022/01/25 09:24:08;;;;;;;76.83;22.67;;;2.50;42.20;;;;;;5049343;28;20481;-68
2022/01/25 09:26:35;;;;;;;66.37;18.03;;;2.60;42.00;;;;;;5048345;28;20525;-69
2022/01/25 09:29:02;;;;;;;64.93;19.63;;;2.60;41.50;;;;;;5049479;28;20484;-68
2022/01/25 09:31:31;;;;;;;73.50;21.90;;;2.60;41.30;;;;;;5048720;28;20496;-68
2022/01/25 09:33:58;;;;;;;66.90;20.53;;;2.60;41.20;;;;;;5049031;28;20674;-69
2022/01/25 09:36:26;;;;;;;69.93;20.50;;;2.60;40.50;;;;;;5048879;28;20963;-68
2022/01/25 09:38:53;;;;;;;77.67;24.03;;;2.70;40.10;;;;;;5049071;28;20472;-68
2022/01/25 09:41:20;;;;;;;66.47;18.53;;;2.60;40.10;;;;;;5048874;28;20458;-69
2022/01/25 09:43:47;;;;;;;68.83;19.63;;;2.60;40.20;;;;;;5049212;28;20481;-69
2022/01/25 09:46:14;;;;;;;70.77;21.67;;;2.60;40.80;;;;;;5048155;28;20516;-68
2022/01/25 09:48:42;;;;;;;73.47;21.00;;;2.60;40.80;;;;;;5049590;28;20458;-69
2022/01/25 09:51:11;;;;;;;73.20;23.20;;;2.50;41.30;;;;;;5051651;28;20454;-69
2022/01/25 09:53:39;;;;;;;67.70;21.93;;;2.50;41.90;;;;;;5049585;28;20461;-69
2022/01/25 09:56:06;;;;;;;72.60;23.53;;;2.60;41.90;;;;;;5047900;28;20702;-69
2022/01/25 09:58:33;;;;;;;70.03;18.33;;;2.60;41.70;;;;;;5049090;28;20458;-68
2022/01/25 10:01:01;;;;;;;78.10;21.20;;;2.60;41.70;;;;;;5047736;28;20470;-69
2022/01/25 10:03:35;;;;;;;66.13;20.50;;;2.70;41.60;;;;;;5049090;28;20566;-69
2022/01/25 10:06:04;;;;;;;71.00;19.43;;;2.70;41.30;;;;;;5048546;28;20497;-69
2022/01/25 10:08:32;;;;;;;75.63;20.73;;;2.80;41.20;;;;;;5047762;28;21053;-69
2022/01/25 10:11:01;;;;;;;74.07;23.03;;;2.90;40.50;;;;;;5047525;28;20549;-69
2022/01/25 10:13:30;;;;;;;72.13;21.00;;;2.90;40.60;;;;;;5049610;28;20489;-69
2022/01/25 10:16:01;;;;;;;67.57;20.30;;;3.00;40.50;;;;;;5048219;28;20478;-70
2022/01/25 10:18:42;;;;;;;69.43;21.33;;;3.00;40.50;;;;;;5047771;28;20462;-69
2022/01/25 10:21:21;;;;;;;75.80;21.00;;;3.00;40.30;;;;;;5048123;28;20462;-69
2022/01/25 10:24:04;;;;;;;69.27;21.43;;;3.10;40.40;;;;;;5048455;28;20482;-69
2022/01/25 10:26:32;;;;;;;75.53;22.93;;;3.10;40.20;;;;;;5048355;28;20490;-68
2022/01/25 10:28:59;;;;;;;75.27;22.70;;;3.20;40.20;;;;;;5047309;28;20461;-69
2022/01/25 10:31:35;;;;;;;77.07;23.47;;;3.20;39.90;;;;;;5047234;28;20473;-68
2022/01/25 10:34:03;;;;;;;71.40;21.83;;;3.30;39.70;;;;;;5048522;28;20450;-70
2022/01/25 10:36:31;;;;;;;77.17;22.83;;;3.30;39.60;;;;;;5048229;28;21017;-68
2022/01/25 10:38:58;;;;;;;71.10;23.77;;;3.30;39.50;;;;;;5046876;28;20465;-69
2022/01/25 10:41:27;;;;;;;71.73;22.07;;;3.40;39.20;;;;;;5048367;28;20457;-69
2022/01/25 10:43:56;;;;;;;73.80;23.50;;;3.40;39.40;;;;;;5048313;28;20860;-70
2022/01/25 10:46:26;;;;;;;76.20;22.27;;;3.40;39.50;;;;;;5047901;28;20978;-69
2022/01/25 10:48:56;;;;;;;73.80;22.00;;;3.50;39.60;;;;;;5046868;28;20466;-68
2022/01/25 10:51:26;;;;;;;77.20;23.10;;;3.50;39.40;;;;;;5047982;28;20557;-68
2022/01/25 10:54:06;;;;;;;71.67;21.93;;;3.60;39.20;;;;;;5048087;28;20486;-68
2022/01/25 10:56:42;;;;;;;70.23;21.40;;;3.60;39.00;;;;;;5047956;28;20512;-69
2022/01/25 10:59:12;;;;;;;69.77;22.27;;;3.70;38.90;;;;;;5047198;28;20500;-68
2022/01/25 11:01:45;;;;;;;73.57;23.67;;;3.70;38.90;;;;;;5047322;28;20477;-69
2022/01/25 11:04:14;;;;;;;75.63;23.37;;;3.70;38.90;;;;;;5048995;28;20725;-68
2022/01/25 11:06:43;;;;;;;64.57;20.90;;;3.70;38.90;;;;;;5048192;28;20469;-69
2022/01/25 11:09:13;;;;;;;75.97;25.13;;;3.80;38.90;;;;;;5047071;28;20459;-69
2022/01/25 11:11:45;;;;;;;71.30;21.37;;;3.90;38.80;;;;;;5047954;28;20466;-70
2022/01/25 11:16:58;;;;;;;66.43;22.20;;;4.10;38.00;;;;;;5047961;28;20477;-70
2022/01/25 11:19:25;;;;;;;74.33;22.90;;;4.20;37.80;;;;;;5046724;28;20461;-70
2022/01/25 11:21:54;;;;;;;68.00;21.87;;;4.40;37.50;;;;;;5047495;28;20490;-68
2022/01/25 11:24:23;;;;;;;68.73;20.90;;;4.50;37.40;;;;;;5047579;28;21037;-69
2022/01/25 11:26:52;;;;;;;74.60;22.57;;;4.50;36.80;;;;;;5037200;28;20539;-69
2022/01/25 11:29:18;;;;;;;72.17;24.20;;;4.60;36.90;;;;;;5047444;28;20547;-68
2022/01/25 11:31:50;;;;;;;71.00;21.97;;;4.70;37.00;;;;;;5045855;28;20882;-68
2022/01/25 11:34:19;;;;;;;70.20;21.87;;;4.70;36.50;;;;;;5048205;28;20454;-70
2022/01/25 11:36:51;;;;;;;69.07;23.13;;;4.80;36.10;;;;;;5047323;28;20485;-68
2022/01/25 11:39:24;;;;;;;67.47;20.43;;;4.80;36.00;;;;;;5048182;28;20465;-68
2022/01/25 11:41:50;;;;;;;70.57;24.00;;;4.80;35.90;;;;;;5046354;28;20461;-68
2022/01/25 11:44:21;;;;;;;71.30;22.50;;;4.80;35.50;;;;;;5051908;28;21093;-69
2022/01/25 11:46:51;;;;;;;73.40;24.17;;;4.90;35.70;;;;;;5051289;28;20572;-68
2022/01/25 11:49:19;;;;;;;74.60;23.27;;;4.90;35.90;;;;;;5051534;28;20457;-68
2022/01/25 11:52:03;;;;;;;71.60;23.83;;;5.00;35.90;;;;;;5050214;28;21001;-68
2022/01/25 11:54:31;;;;;;;67.90;19.77;;;5.00;35.50;;;;;;5051203;28;20454;-69
2022/01/25 11:57:10;;;;;;;75.37;22.47;;;5.10;35.40;;;;;;5051331;28;20478;-68
2022/01/25 11:59:37;;;;;;;69.87;22.13;;;5.20;35.40;;;;;;5051761;28;20885;-69
2022/01/25 12:02:04;;;;;;;62.87;20.27;;;5.30;35.80;;;;;;5049799;28;20472;-69
2022/01/25 12:04:31;;;;;;;70.13;21.43;;;5.60;35.20;;;;;;5051184;28;20478;-69
2022/01/25 12:07:02;;;;;;;65.23;21.07;;;5.70;34.40;;;;;;5051206;28;20478;-69
2022/01/25 12:09:46;;;;;;;80.07;21.47;;;5.80;34.20;;;;;;5050843;28;20954;-69
2022/01/25 12:12:15;;;;;;;79.60;29.70;;;5.90;33.70;;;;;;5048826;28;20549;-69
2022/01/25 12:14:48;;;;;;;74.97;27.03;;;5.90;33.70;;;;;;5050575;28;20454;-69
2022/01/25 12:17:17;;;;;;;73.23;25.80;;;6.00;33.30;;;;;;5050715;28;20490;-69
2022/01/25 12:19:47;;;;;;;67.33;21.37;;;6.00;32.90;;;;;;5050644;28;20454;-71
2022/01/25 12:22:28;;;;;;;67.60;21.27;;;6.00;33.60;;;;;;5049569;28;20490;-69
2022/01/25 12:25:06;;;;;;;68.40;21.87;;;6.10;35.50;;;;;;5050235;28;20970;-69
2022/01/25 12:27:50;;;;;;;65.33;21.83;;;6.10;34.50;;;;;;5050679;28;20465;-65
2022/01/25 12:30:29;;;;;;;66.77;22.17;;;6.00;33.50;;;;;;5049968;28;20881;-65
2022/01/25 12:33:01;;;;;;;73.10;22.30;;;5.90;33.10;;;;;;5049992;28;20445;-64
2022/01/25 12:35:49;;;;;;;68.57;23.23;;;5.90;33.20;;;;;;5050537;28;20528;-65
2022/01/25 12:38:21;;;;;;;64.13;21.50;;;5.80;33.10;;;;;;5047374;28;20458;-70
2022/01/25 12:40:52;;;;;;;71.03;22.40;;;5.80;33.10;;;;;;5050317;28;20485;-69
2022/01/25 12:43:23;;;;;;;66.10;21.80;;;5.80;32.90;;;;;;5049350;28;20818;-70
2022/01/25 12:45:53;;;;;;;68.17;22.67;;;5.80;33.10;;;;;;5050353;28;20481;-69
2022/01/25 12:48:22;;;;;;;65.93;20.40;;;5.80;33.00;;;;;;5050414;28;20457;-70
2022/01/25 12:50:52;;;;;;;66.17;22.43;;;5.90;33.10;;;;;;5049473;28;20462;-68
2022/01/25 12:53:21;;;;;;;65.60;22.10;;;5.90;32.90;;;;;;5036006;28;20473;-69
2022/01/25 12:55:52;;;;;;;66.30;20.53;;;5.90;32.60;;;;;;5049686;28;21142;-70
2022/01/25 12:58:20;;;;;;;68.50;22.27;;;5.90;32.70;;;;;;5050267;28;20845;-69
2022/01/25 13:00:50;;;;;;;64.20;21.63;;;5.90;32.70;;;;;;5049294;28;20473;-69
2022/01/25 13:03:26;;;;;;;63.00;21.13;;;5.90;33.20;;;;;;5048921;28;20461;-69
2022/01/25 13:05:55;;;;;;;65.47;19.63;;;5.90;32.70;;;;;;5049959;28;20485;-69
2022/01/25 13:08:26;;;;;;;68.00;23.37;;;5.90;32.80;;;;;;5049783;28;20454;-69
2022/01/25 13:11:12;;;;;;;79.57;24.90;;;5.90;33.00;;;;;;5050145;28;20485;-69
2022/01/25 13:13:56;;;;;;;64.77;22.30;;;6.00;33.10;;;;;;5049137;28;20541;-68
2022/01/25 13:16:36;;;;;;;66.03;23.17;;;6.00;32.80;;;;;;5049676;28;20480;-68
2022/01/25 13:19:03;;;;;;;69.27;22.47;;;6.00;33.10;;;;;;5049383;28;20469;-70
2022/01/25 13:21:38;;;;;;;72.70;24.40;;;6.00;33.10;;;;;;5048482;28;20466;-69
2022/01/25 13:24:08;;;;;;;67.93;23.40;;;6.00;33.20;;;;;;5049502;28;20484;-69
2022/01/25 13:26:40;;;;;;;67.13;24.03;;;6.00;33.10;;;;;;5049564;28;20486;-69
2022/01/25 13:31:53;;;;;;;67.77;23.37;;;6.10;33.00;;;;;;5047612;28;20485;-69
2022/01/25 13:34:23;;;;;;;73.80;26.77;;;6.10;33.00;;;;;;5048749;28;20815;-70
2022/01/25 13:36:50;;;;;;;70.20;27.60;;;6.00;32.40;;;;;;5049636;28;20478;-69
2022/01/25 13:39:20;;;;;;;71.70;28.97;;;6.00;32.40;;;;;;5049488;28;20461;-69
2022/01/25 13:41:53;;;;;;;66.77;24.90;;;5.90;32.70;;;;;;5047775;28;20870;-69
2022/01/25 13:47:11;;;;;;;72.77;28.73;;;5.80;32.90;;;;;;5048511;28;20461;-70
2022/01/25 13:49:38;;;;;;;73.37;26.37;;;5.70;33.30;;;;;;5048953;28;20895;-68
2022/01/25 13:52:06;;;;;;;68.13;23.70;;;5.60;33.50;;;;;;5047378;28;20985;-69
2022/01/25 13:54:32;;;;;;;74.57;25.87;;;5.60;34.00;;;;;;5048950;28;20485;-69
2022/01/25 13:57:09;;;;;;;68.73;24.57;;;5.60;34.10;;;;;;5047475;28;20509;-70
2022/01/25 13:59:36;;;;;;;65.17;21.43;;;5.60;34.10;;;;;;5048718;28;20581;-69
2022/01/25 14:02:03;;;;;;;66.20;23.70;;;5.50;34.10;;;;;;5047984;28;20470;-69
2022/01/25 14:04:33;;;;;;;64.13;21.00;;;5.50;34.00;;;;;;5048458;28;20482;-70
2022/01/25 14:07:03;;;;;;;75.77;23.67;;;5.40;34.00;;;;;;5046325;28;20493;-69
2022/01/25 14:09:33;;;;;;;67.73;23.07;;;5.40;34.20;;;;;;5048514;28;20531;-70
2022/01/25 14:23:45;;;;;;;72.03;23.80;;;5.20;35.00;;;;;;5047897;28;20465;-69
2022/01/25 14:26:12;;;;;;;67.30;20.03;;;5.20;35.10;;;;;;5048617;28;20481;-69
2022/01/25 14:28:42;;;;;;;76.47;24.07;;;5.20;35.00;;;;;;5047220;28;20461;-70